createdAt,value
2017-11-25T00:00:41.198Z,6.50
2017-11-25T00:01:41.810Z,6.50
2017-11-25T00:02:42.408Z,6.53
2017-11-25T00:03:43.015Z,6.50
2017-11-25T00:04:43.628Z,6.57
2017-11-25T00:05:44.215Z,6.48
2017-11-25T00:06:44.817Z,6.57
2017-11-25T00:07:45.412Z,6.55
2017-11-25T00:08:46.020Z,6.55
2017-11-25T00:09:46.623Z,6.53
2017-11-25T00:10:47.239Z,6.57
2017-11-25T00:11:47.849Z,6.53
2017-11-25T00:12:48.447Z,6.57
2017-11-25T00:13:49.044Z,6.64
2017-11-25T00:14:49.656Z,6.66
2017-11-25T00:15:50.269Z,6.64
2017-11-25T00:16:50.862Z,6.60
2017-11-25T00:17:51.461Z,6.50
2017-11-25T00:18:52.060Z,6.58
2017-11-25T00:19:52.656Z,6.50
2017-11-25T00:20:53.264Z,6.63
2017-11-25T00:21:53.860Z,6.63
2017-11-25T00:22:54.469Z,6.55
2017-11-25T00:23:55.080Z,6.60
2017-11-25T00:24:55.678Z,6.58
2017-11-25T00:25:56.289Z,6.63
2017-11-25T00:26:56.886Z,6.68
2017-11-25T00:27:57.489Z,6.67
2017-11-25T00:28:58.092Z,6.63
2017-11-25T00:29:58.688Z,6.60
2017-11-25T00:30:59.293Z,6.58
2017-11-25T00:31:59.905Z,6.55
2017-11-25T00:33:00.518Z,6.55
2017-11-25T00:34:01.107Z,6.53
2017-11-25T00:35:01.705Z,6.63
2017-11-25T00:36:02.312Z,6.60
2017-11-25T00:37:02.906Z,6.55
2017-11-25T00:38:03.507Z,6.60
2017-11-25T00:39:04.106Z,6.67
2017-11-25T00:40:04.709Z,6.68
2017-11-25T00:41:05.316Z,6.68
2017-11-25T00:42:05.910Z,6.61
2017-11-25T00:43:06.508Z,6.66
2017-11-25T00:44:07.122Z,6.64
2017-11-25T00:45:07.721Z,6.63
2017-11-25T00:46:08.307Z,6.63
2017-11-25T00:47:08.909Z,6.60
2017-11-25T00:48:09.507Z,6.67
2017-11-25T00:49:10.117Z,6.70
2017-11-25T00:50:10.738Z,6.70
2017-11-25T00:51:11.346Z,6.63
2017-11-25T00:52:11.950Z,6.66
2017-11-25T00:53:12.550Z,6.67
2017-11-25T00:54:13.148Z,6.67
2017-11-25T00:55:13.746Z,6.64
2017-11-25T00:56:14.335Z,6.60
2017-11-25T00:57:14.941Z,6.61
2017-11-25T00:58:15.537Z,6.66
2017-11-25T00:59:16.135Z,6.67
2017-11-25T01:00:16.756Z,6.67
2017-11-25T01:01:17.369Z,6.63
2017-11-25T01:02:17.975Z,6.68
2017-11-25T01:03:18.581Z,6.64
2017-11-25T01:04:19.194Z,6.70
2017-11-25T01:05:19.795Z,6.66
2017-11-25T01:06:20.419Z,6.68
2017-11-25T01:07:21.024Z,6.67
2017-11-25T01:08:21.630Z,6.67
2017-11-25T01:09:22.236Z,6.71
2017-11-25T01:10:22.864Z,6.60
2017-11-25T01:11:23.483Z,6.63
2017-11-25T01:12:24.088Z,6.55
2017-11-25T01:13:24.693Z,6.45
2017-11-25T01:14:25.289Z,6.45
2017-11-25T01:15:25.887Z,6.42
2017-11-25T01:16:26.493Z,6.39
2017-11-25T01:17:27.091Z,6.42
2017-11-25T01:18:27.688Z,6.39
2017-11-25T01:19:28.297Z,6.34
2017-11-25T01:20:28.901Z,6.35
2017-11-25T01:21:29.505Z,6.28
2017-11-25T01:22:30.093Z,6.40
2017-11-25T01:23:30.690Z,6.24
2017-11-25T01:24:31.285Z,6.30
2017-11-25T01:25:31.879Z,6.22
2017-11-25T01:26:32.492Z,6.24
2017-11-25T01:27:33.107Z,6.24
2017-11-25T01:28:33.715Z,6.24
2017-11-25T01:29:34.312Z,6.13
2017-11-25T01:30:34.905Z,6.13
2017-11-25T01:31:35.502Z,6.08
2017-11-25T01:32:36.111Z,6.09
2017-11-25T01:33:36.723Z,6.12
2017-11-25T01:34:37.335Z,6.06
2017-11-25T01:35:37.931Z,6.02
2017-11-25T01:36:38.531Z,5.97
2017-11-25T01:37:39.126Z,6.04
2017-11-25T01:38:39.711Z,6.01
2017-11-25T01:39:40.311Z,6.01
2017-11-25T01:40:40.914Z,5.97
2017-11-25T01:41:41.508Z,5.99
2017-11-25T01:42:42.105Z,5.91
2017-11-25T01:43:42.704Z,5.91
2017-11-25T01:44:43.297Z,5.97
2017-11-25T01:45:43.903Z,5.97
2017-11-25T01:46:44.507Z,5.93
2017-11-25T01:47:45.106Z,5.94
2017-11-25T01:48:45.705Z,6.01
2017-11-25T01:49:46.313Z,5.91
2017-11-25T01:50:46.907Z,5.90
2017-11-25T01:51:47.504Z,5.96
2017-11-25T01:52:48.113Z,5.94
2017-11-25T01:53:48.721Z,5.96
2017-11-25T01:54:49.324Z,5.84
2017-11-25T01:55:49.938Z,5.90
2017-11-25T01:56:50.547Z,5.88
2017-11-25T01:57:51.156Z,5.84
2017-11-25T01:58:51.751Z,5.86
2017-11-25T01:59:52.347Z,5.94
2017-11-25T02:00:52.938Z,5.90
2017-11-25T02:01:53.543Z,5.91
2017-11-25T02:02:54.153Z,5.87
2017-11-25T02:03:54.763Z,5.87
2017-11-25T02:04:55.365Z,5.87
2017-11-25T02:05:55.966Z,5.79
2017-11-25T02:06:56.558Z,5.83
2017-11-25T02:07:57.165Z,5.81
2017-11-25T02:08:57.770Z,5.78
2017-11-25T02:09:58.377Z,5.83
2017-11-25T02:10:58.973Z,5.83
2017-11-25T02:11:59.567Z,5.86
2017-11-25T02:13:00.172Z,5.83
2017-11-25T02:14:00.769Z,5.86
2017-11-25T02:15:01.373Z,5.81
2017-11-25T02:16:01.971Z,5.83
2017-11-25T02:17:02.561Z,5.87
2017-11-25T02:18:03.168Z,5.84
2017-11-25T02:19:03.778Z,5.83
2017-11-25T02:20:04.386Z,5.81
2017-11-25T02:21:04.982Z,5.78
2017-11-25T02:22:05.589Z,5.78
2017-11-25T02:23:06.198Z,5.83
2017-11-25T02:24:06.790Z,5.87
2017-11-25T02:25:07.388Z,5.83
2017-11-25T02:26:07.996Z,5.81
2017-11-25T02:27:08.601Z,5.79
2017-11-25T02:28:09.200Z,5.76
2017-11-25T02:29:09.804Z,5.84
2017-11-25T02:30:10.403Z,5.83
2017-11-25T02:31:11.012Z,5.83
2017-11-25T02:32:11.622Z,5.81
2017-11-25T02:33:12.199Z,5.76
2017-11-25T02:34:12.805Z,5.73
2017-11-25T02:35:13.410Z,5.75
2017-11-25T02:36:14.022Z,5.76
2017-11-25T02:37:14.640Z,5.78
2017-11-25T02:38:15.241Z,5.79
2017-11-25T02:39:15.844Z,5.78
2017-11-25T02:40:16.428Z,5.75
2017-11-25T02:41:17.044Z,5.72
2017-11-25T02:42:17.651Z,5.76
2017-11-25T02:43:18.248Z,5.69
2017-11-25T02:44:18.853Z,5.78
2017-11-25T02:45:19.450Z,5.76
2017-11-25T02:46:20.060Z,5.79
2017-11-25T02:47:20.666Z,5.76
2017-11-25T02:48:21.256Z,5.76
2017-11-25T02:49:21.854Z,5.83
2017-11-25T02:50:22.462Z,5.81
2017-11-25T02:51:23.070Z,5.72
2017-11-25T02:52:23.668Z,5.78
2017-11-25T02:53:24.267Z,5.73
2017-11-25T02:54:24.862Z,5.78
2017-11-25T02:55:25.457Z,5.76
2017-11-25T02:56:26.055Z,5.69
2017-11-25T02:57:26.664Z,5.73
2017-11-25T02:58:27.269Z,5.73
2017-11-25T02:59:27.875Z,5.76
2017-11-25T03:00:28.473Z,5.78
2017-11-25T03:01:29.087Z,5.70
2017-11-25T03:02:29.692Z,5.72
2017-11-25T03:03:30.278Z,5.76
2017-11-25T03:04:30.879Z,5.72
2017-11-25T03:05:31.486Z,5.72
2017-11-25T03:06:32.076Z,5.69
2017-11-25T03:07:32.679Z,5.73
2017-11-25T03:08:33.288Z,5.66
2017-11-25T03:09:33.896Z,5.69
2017-11-25T03:10:34.483Z,5.61
2017-11-25T03:11:35.092Z,5.63
2017-11-25T03:12:35.697Z,5.65
2017-11-25T03:13:36.303Z,5.66
2017-11-25T03:14:36.895Z,5.65
2017-11-25T03:15:37.500Z,5.66
2017-11-25T03:16:38.114Z,5.65
2017-11-25T03:17:38.693Z,5.58
2017-11-25T03:18:39.295Z,5.63
2017-11-25T03:19:39.895Z,5.66
2017-11-25T03:20:40.499Z,5.65
2017-11-25T03:21:41.114Z,5.63
2017-11-25T03:22:41.718Z,5.66
2017-11-25T03:23:42.321Z,5.60
2017-11-25T03:24:42.928Z,5.66
2017-11-25T03:25:43.531Z,5.63
2017-11-25T03:26:44.140Z,5.65
2017-11-25T03:27:44.738Z,5.61
2017-11-25T03:28:45.339Z,5.61
2017-11-25T03:29:45.928Z,5.55
2017-11-25T03:30:46.529Z,5.52
2017-11-25T03:31:47.121Z,5.54
2017-11-25T03:32:47.791Z,5.61
2017-11-25T03:33:48.403Z,5.58
2017-11-25T03:34:49.001Z,5.54
2017-11-25T03:35:49.595Z,5.45
2017-11-25T03:36:50.191Z,5.50
2017-11-25T03:37:50.786Z,5.50
2017-11-25T03:38:51.381Z,5.55
2017-11-25T03:39:51.990Z,5.48
2017-11-25T03:40:52.580Z,5.40
2017-11-25T03:41:53.179Z,5.44
2017-11-25T03:42:53.766Z,5.48
2017-11-25T03:43:54.369Z,5.51
2017-11-25T03:44:54.962Z,5.51
2017-11-25T03:45:55.562Z,5.47
2017-11-25T03:46:56.167Z,5.39
2017-11-25T03:47:56.767Z,5.40
2017-11-25T03:48:57.361Z,5.47
2017-11-25T03:49:57.957Z,5.44
2017-11-25T03:50:58.572Z,5.45
2017-11-25T03:51:59.160Z,5.50
2017-11-25T03:52:59.752Z,5.48
2017-11-25T03:54:00.361Z,5.48
2017-11-25T03:55:00.965Z,5.44
2017-11-25T03:56:01.560Z,5.48
2017-11-25T03:57:02.159Z,5.52
2017-11-25T03:58:02.751Z,5.51
2017-11-25T03:59:03.356Z,5.42
2017-11-25T04:00:03.946Z,5.44
2017-11-25T04:01:04.541Z,5.45
2017-11-25T04:02:05.144Z,5.47
2017-11-25T04:03:05.737Z,5.45
2017-11-25T04:04:06.329Z,5.40
2017-11-25T04:05:06.913Z,5.37
2017-11-25T04:06:07.510Z,5.45
2017-11-25T04:07:08.113Z,5.44
2017-11-25T04:08:08.706Z,5.50
2017-11-25T04:09:09.310Z,5.42
2017-11-25T04:10:09.918Z,5.42
2017-11-25T04:11:10.517Z,5.47
2017-11-25T04:12:11.124Z,5.44
2017-11-25T04:13:11.721Z,5.39
2017-11-25T04:14:12.329Z,5.44
2017-11-25T04:15:12.921Z,5.42
2017-11-25T04:16:13.530Z,5.48
2017-11-25T04:17:14.124Z,5.36
2017-11-25T04:18:14.717Z,5.37
2017-11-25T04:19:15.312Z,5.51
2017-11-25T04:20:15.922Z,5.37
2017-11-25T04:21:16.521Z,5.33
2017-11-25T04:22:17.134Z,5.30
2017-11-25T04:23:17.745Z,5.39
2017-11-25T04:24:18.334Z,5.40
2017-11-25T04:25:18.925Z,5.44
2017-11-25T04:26:19.528Z,5.39
2017-11-25T04:27:20.131Z,5.45
2017-11-25T04:28:20.747Z,5.40
2017-11-25T04:29:21.354Z,5.39
2017-11-25T04:30:21.958Z,5.42
2017-11-25T04:31:22.560Z,5.37
2017-11-25T04:32:23.166Z,5.40
2017-11-25T04:33:23.760Z,5.42
2017-11-25T04:34:24.343Z,5.47
2017-11-25T04:35:24.943Z,5.42
2017-11-25T04:36:25.540Z,5.40
2017-11-25T04:37:26.142Z,5.48
2017-11-25T04:38:26.748Z,5.27
2017-11-25T04:39:27.349Z,5.32
2017-11-25T04:40:27.943Z,5.33
2017-11-25T04:41:28.549Z,5.30
2017-11-25T04:42:29.146Z,5.36
2017-11-25T04:43:29.755Z,5.37
2017-11-25T04:44:30.360Z,5.33
2017-11-25T04:45:30.955Z,5.34
2017-11-25T04:46:31.552Z,5.30
2017-11-25T04:47:32.145Z,5.32
2017-11-25T04:48:32.757Z,5.33
2017-11-25T04:49:33.373Z,5.34
2017-11-25T04:50:33.985Z,5.37
2017-11-25T04:51:34.616Z,5.34
2017-11-25T04:52:35.210Z,5.42
2017-11-25T04:53:35.816Z,5.37
2017-11-25T04:54:36.423Z,5.37
2017-11-25T04:55:37.024Z,5.40
2017-11-25T04:56:37.625Z,5.30
2017-11-25T04:57:38.217Z,5.39
2017-11-25T04:58:38.828Z,5.34
2017-11-25T04:59:39.422Z,5.36
2017-11-25T05:00:40.027Z,5.40
2017-11-25T05:01:40.636Z,5.34
2017-11-25T05:02:41.213Z,5.32
2017-11-25T05:03:41.813Z,5.29
2017-11-25T05:04:42.415Z,5.36
2017-11-25T05:05:43.013Z,5.40
2017-11-25T05:06:43.603Z,5.39
2017-11-25T05:07:44.211Z,5.50
2017-11-25T05:08:44.911Z,5.37
2017-11-25T05:09:45.519Z,5.47
2017-11-25T05:10:46.127Z,5.52
2017-11-25T05:11:46.725Z,5.32
2017-11-25T05:12:47.332Z,5.37
2017-11-25T05:13:47.936Z,5.30
2017-11-25T05:14:48.534Z,5.29
2017-11-25T05:15:49.131Z,5.32
2017-11-25T05:16:49.733Z,5.42
2017-11-25T05:17:50.338Z,5.39
2017-11-25T05:18:50.948Z,5.39
2017-11-25T05:19:51.548Z,5.44
2017-11-25T05:20:52.148Z,5.47
2017-11-25T05:21:52.738Z,5.34
2017-11-25T05:22:53.339Z,5.40
2017-11-25T05:23:53.958Z,5.42
2017-11-25T05:24:54.552Z,5.40
2017-11-25T05:25:55.149Z,5.40
2017-11-25T05:26:55.747Z,5.42
2017-11-25T05:27:56.341Z,5.27
2017-11-25T05:28:56.955Z,5.30
2017-11-25T05:29:57.545Z,5.44
2017-11-25T05:30:58.152Z,5.29
2017-11-25T05:31:58.753Z,5.32
2017-11-25T05:32:59.357Z,5.29
2017-11-25T05:33:59.961Z,5.32
2017-11-25T05:35:00.556Z,5.27
2017-11-25T05:36:01.164Z,5.36
2017-11-25T05:37:01.775Z,5.39
2017-11-25T05:38:02.362Z,5.39
2017-11-25T05:39:02.956Z,5.42
2017-11-25T05:40:03.567Z,5.32
2017-11-25T05:41:04.179Z,5.36
2017-11-25T05:42:04.774Z,5.32
2017-11-25T05:43:05.359Z,5.32
2017-11-25T05:44:05.950Z,5.30
2017-11-25T05:45:06.554Z,5.30
2017-11-25T05:46:07.161Z,5.34
2017-11-25T05:47:07.757Z,5.32
2017-11-25T05:48:08.363Z,5.39
2017-11-25T05:49:08.966Z,5.30
2017-11-25T05:50:09.569Z,5.34
2017-11-25T05:51:10.171Z,5.33
2017-11-25T05:52:10.777Z,5.30
2017-11-25T05:53:11.385Z,5.32
2017-11-25T05:54:11.983Z,5.37
2017-11-25T05:55:12.577Z,5.27
2017-11-25T05:56:13.174Z,5.27
2017-11-25T05:57:13.778Z,5.37
2017-11-25T05:58:14.386Z,5.33
2017-11-25T05:59:14.987Z,5.45
2017-11-25T06:00:15.576Z,5.44
2017-11-25T06:01:16.180Z,5.40
2017-11-25T06:02:16.786Z,5.47
2017-11-25T06:03:17.374Z,5.39
2017-11-25T06:04:18.001Z,5.33
2017-11-25T06:05:18.580Z,5.39
2017-11-25T06:06:19.178Z,5.39
2017-11-25T06:07:19.781Z,5.45
2017-11-25T06:08:20.386Z,5.37
2017-11-25T06:09:20.989Z,5.40
2017-11-25T06:10:21.593Z,5.44
2017-11-25T06:11:22.199Z,5.44
2017-11-25T06:12:22.798Z,5.40
2017-11-25T06:13:23.388Z,5.40
2017-11-25T06:14:23.990Z,5.45
2017-11-25T06:15:24.593Z,5.52
2017-11-25T06:16:25.227Z,5.47
2017-11-25T06:17:25.781Z,5.45
2017-11-25T06:18:26.373Z,5.42
2017-11-25T06:19:26.961Z,5.52
2017-11-25T06:20:27.573Z,5.42
2017-11-25T06:21:28.161Z,5.37
2017-11-25T06:22:28.768Z,5.47
2017-11-25T06:23:29.361Z,5.50
2017-11-25T06:24:29.968Z,5.50
2017-11-25T06:25:30.573Z,5.42
2017-11-25T06:26:31.179Z,5.54
2017-11-25T06:27:31.772Z,5.47
2017-11-25T06:28:32.382Z,5.44
2017-11-25T06:29:32.991Z,5.40
2017-11-25T06:30:33.597Z,5.42
2017-11-25T06:31:34.214Z,5.30
2017-11-25T06:32:34.816Z,5.30
2017-11-25T06:33:35.411Z,5.44
2017-11-25T06:34:36.001Z,5.30
2017-11-25T06:35:36.604Z,5.27
2017-11-25T06:36:37.207Z,5.26
2017-11-25T06:37:37.815Z,5.36
2017-11-25T06:38:38.424Z,5.33
2017-11-25T06:39:39.022Z,5.34
2017-11-25T06:40:39.623Z,5.34
2017-11-25T06:41:40.214Z,5.30
2017-11-25T06:42:40.813Z,5.29
2017-11-25T06:43:41.408Z,5.33
2017-11-25T06:44:42.021Z,5.33
2017-11-25T06:45:42.615Z,5.34
2017-11-25T06:46:43.205Z,5.34
2017-11-25T06:47:43.802Z,5.36
2017-11-25T06:48:44.408Z,5.39
2017-11-25T06:49:45.014Z,5.33
2017-11-25T06:50:45.615Z,5.40
2017-11-25T06:51:46.213Z,5.26
2017-11-25T06:52:46.822Z,5.29
2017-11-25T06:53:47.430Z,5.32
2017-11-25T06:54:48.043Z,5.47
2017-11-25T06:55:48.636Z,5.26
2017-11-25T06:56:49.235Z,5.47
2017-11-25T06:57:49.834Z,5.34
2017-11-25T06:58:50.434Z,5.34
2017-11-25T06:59:51.039Z,5.33
2017-11-25T07:00:51.669Z,5.32
2017-11-25T07:01:52.243Z,5.40
2017-11-25T07:02:52.834Z,5.34
2017-11-25T07:03:53.435Z,5.44
2017-11-25T07:04:54.035Z,5.39
2017-11-25T07:05:54.639Z,5.40
2017-11-25T07:06:55.251Z,5.39
2017-11-25T07:07:55.846Z,5.47
2017-11-25T07:08:56.462Z,5.39
2017-11-25T07:09:57.070Z,5.34
2017-11-25T07:10:57.674Z,5.39
2017-11-25T07:11:58.278Z,5.40
2017-11-25T07:12:58.885Z,5.40
2017-11-25T07:13:59.477Z,5.40
2017-11-25T07:15:00.083Z,5.40
2017-11-25T07:16:00.691Z,5.36
2017-11-25T07:17:01.283Z,5.33
2017-11-25T07:18:01.891Z,5.33
2017-11-25T07:19:02.508Z,5.29
2017-11-25T07:20:03.118Z,5.24
2017-11-25T07:21:03.734Z,5.26
2017-11-25T07:22:04.351Z,5.21
2017-11-25T07:23:04.945Z,5.26
2017-11-25T07:24:05.550Z,5.19
2017-11-25T07:25:06.167Z,5.30
2017-11-25T07:26:06.766Z,5.29
2017-11-25T07:27:07.376Z,5.30
2017-11-25T07:28:07.970Z,5.18
2017-11-25T07:29:08.582Z,5.26
2017-11-25T07:30:09.182Z,5.26
2017-11-25T07:31:09.794Z,5.26
2017-11-25T07:32:10.406Z,5.26
2017-11-25T07:33:11.003Z,5.22
2017-11-25T07:34:11.602Z,5.27
2017-11-25T07:35:12.202Z,5.24
2017-11-25T07:36:12.809Z,5.27
2017-11-25T07:37:13.409Z,5.26
2017-11-25T07:38:14.025Z,5.21
2017-11-25T07:39:14.620Z,5.21
2017-11-25T07:40:15.221Z,5.26
2017-11-25T07:41:15.817Z,5.22
2017-11-25T07:42:16.417Z,5.21
2017-11-25T07:43:17.034Z,5.22
2017-11-25T07:44:17.624Z,5.24
2017-11-25T07:45:18.219Z,5.24
2017-11-25T07:46:18.818Z,5.19
2017-11-25T07:47:19.413Z,5.24
2017-11-25T07:48:20.022Z,5.24
2017-11-25T07:49:20.625Z,5.22
2017-11-25T07:50:21.226Z,5.21
2017-11-25T07:51:21.843Z,5.27
2017-11-25T07:52:22.447Z,5.26
2017-11-25T07:53:23.047Z,5.30
2017-11-25T07:54:23.651Z,5.24
2017-11-25T07:55:24.255Z,5.16
2017-11-25T07:56:24.847Z,5.19
2017-11-25T07:57:25.445Z,5.21
2017-11-25T07:58:26.058Z,5.24
2017-11-25T07:59:26.668Z,5.15
2017-11-25T08:00:27.286Z,5.26
2017-11-25T08:01:27.901Z,5.26
2017-11-25T08:02:28.511Z,5.29
2017-11-25T08:03:29.119Z,5.29
2017-11-25T08:04:29.719Z,5.30
2017-11-25T08:05:30.332Z,5.29
2017-11-25T08:06:30.941Z,5.37
2017-11-25T08:07:31.553Z,5.32
2017-11-25T08:08:32.165Z,5.34
2017-11-25T08:09:32.758Z,5.40
2017-11-25T08:10:33.375Z,5.30
2017-11-25T08:11:33.979Z,5.33
2017-11-25T08:12:34.590Z,5.22
2017-11-25T08:13:35.206Z,5.37
2017-11-25T08:14:35.816Z,5.32
2017-11-25T08:15:36.419Z,5.40
2017-11-25T08:16:37.013Z,5.30
2017-11-25T08:17:37.631Z,5.37
2017-11-25T08:18:38.223Z,5.36
2017-11-25T08:19:38.835Z,5.37
2017-11-25T08:20:39.449Z,5.29
2017-11-25T08:21:40.066Z,5.24
2017-11-25T08:22:40.682Z,5.37
2017-11-25T08:23:41.292Z,5.42
2017-11-25T08:24:42.111Z,5.27
2017-11-25T08:25:42.717Z,5.37
2017-11-25T08:26:43.314Z,5.27
2017-11-25T08:27:43.914Z,5.37
2017-11-25T08:28:44.526Z,5.36
2017-11-25T08:29:45.116Z,5.40
2017-11-25T08:30:45.714Z,5.40
2017-11-25T08:31:46.320Z,5.44
2017-11-25T08:32:46.923Z,5.34
2017-11-25T08:33:47.530Z,5.27
2017-11-25T08:34:48.141Z,5.27
2017-11-25T08:35:48.746Z,5.32
2017-11-25T08:36:49.360Z,5.30
2017-11-25T08:37:49.968Z,5.39
2017-11-25T08:38:50.586Z,5.44
2017-11-25T08:39:51.195Z,5.36
2017-11-25T08:40:51.797Z,5.37
2017-11-25T08:41:52.416Z,5.32
2017-11-25T08:42:53.037Z,5.27
2017-11-25T08:43:53.651Z,5.29
2017-11-25T08:44:54.266Z,5.33
2017-11-25T08:45:54.865Z,5.24
2017-11-25T08:46:55.480Z,5.26
2017-11-25T08:47:56.093Z,5.29
2017-11-25T08:48:56.702Z,5.27
2017-11-25T08:49:57.310Z,5.30
2017-11-25T08:50:57.915Z,5.26
2017-11-25T08:51:58.567Z,5.29
2017-11-25T08:52:59.162Z,5.40
2017-11-25T08:53:59.772Z,5.39
2017-11-25T08:55:00.391Z,5.34
2017-11-25T08:56:00.987Z,5.32
2017-11-25T08:57:01.582Z,5.32
2017-11-25T08:58:02.204Z,5.40
2017-11-25T08:59:02.800Z,5.44
2017-11-25T09:00:03.418Z,5.42
2017-11-25T09:01:04.022Z,5.47
2017-11-25T09:02:04.614Z,5.42
2017-11-25T09:03:05.217Z,5.40
2017-11-25T09:04:05.812Z,5.40
2017-11-25T09:05:06.425Z,5.30
2017-11-25T09:06:07.036Z,5.34
2017-11-25T09:07:07.631Z,5.45
2017-11-25T09:08:08.220Z,5.47
2017-11-25T09:09:08.819Z,5.50
2017-11-25T09:10:09.428Z,5.45
2017-11-25T09:11:10.032Z,5.48
2017-11-25T09:12:10.651Z,5.45
2017-11-25T09:13:11.255Z,5.48
2017-11-25T09:14:11.852Z,5.52
2017-11-25T09:15:12.466Z,5.52
2017-11-25T09:16:13.073Z,5.65
2017-11-25T09:17:13.676Z,5.68
2017-11-25T09:18:14.293Z,5.66
2017-11-25T09:19:14.918Z,5.70
2017-11-25T09:20:15.508Z,5.84
2017-11-25T09:21:16.117Z,5.78
2017-11-25T09:22:16.720Z,5.94
2017-11-25T09:23:17.361Z,5.96
2017-11-25T09:24:17.996Z,5.97
2017-11-25T09:25:18.607Z,5.94
2017-11-25T09:26:19.226Z,6.04
2017-11-25T09:27:19.819Z,5.97
2017-11-25T09:28:20.427Z,6.06
2017-11-25T09:29:21.061Z,6.06
2017-11-25T09:30:21.671Z,6.12
2017-11-25T09:31:22.293Z,6.05
2017-11-25T09:32:22.887Z,5.94
2017-11-25T09:33:23.490Z,5.94
2017-11-25T09:34:24.107Z,5.93
2017-11-25T09:35:24.716Z,5.93
2017-11-25T09:36:25.324Z,5.94
2017-11-25T09:37:25.931Z,5.88
2017-11-25T09:38:26.543Z,5.90
2017-11-25T09:39:27.148Z,5.90
2017-11-25T09:40:27.753Z,5.86
2017-11-25T09:41:28.356Z,5.90
2017-11-25T09:42:28.968Z,5.88
2017-11-25T09:43:29.570Z,5.81
2017-11-25T09:44:30.199Z,5.86
2017-11-25T09:45:30.818Z,5.81
2017-11-25T09:46:31.453Z,5.81
2017-11-25T09:47:32.029Z,5.79
2017-11-25T09:48:32.641Z,5.86
2017-11-25T09:49:33.238Z,5.83
2017-11-25T09:50:33.844Z,5.73
2017-11-25T09:51:34.451Z,5.72
2017-11-25T09:52:35.057Z,5.72
2017-11-25T09:53:35.659Z,5.69
2017-11-25T09:54:36.266Z,5.68
2017-11-25T09:55:36.868Z,5.70
2017-11-25T09:56:37.479Z,5.70
2017-11-25T09:57:38.089Z,5.73
2017-11-25T09:58:38.695Z,5.75
2017-11-25T09:59:39.297Z,5.70
2017-11-25T10:00:39.911Z,5.75
2017-11-25T10:01:40.521Z,5.66
2017-11-25T10:02:41.129Z,5.63
2017-11-25T10:03:41.721Z,5.65
2017-11-25T10:04:42.324Z,5.60
2017-11-25T10:05:42.944Z,5.65
2017-11-25T10:06:43.537Z,5.61
2017-11-25T10:07:44.134Z,5.66
2017-11-25T10:08:44.735Z,5.60
2017-11-25T10:09:45.345Z,5.66
2017-11-25T10:10:45.961Z,5.58
2017-11-25T10:11:46.567Z,5.63
2017-11-25T10:12:47.172Z,5.60
2017-11-25T10:13:47.786Z,5.57
2017-11-25T10:14:48.398Z,5.61
2017-11-25T10:15:49.008Z,5.60
2017-11-25T10:16:49.615Z,5.58
2017-11-25T10:17:50.213Z,5.68
2017-11-25T10:18:50.816Z,5.60
2017-11-25T10:19:51.419Z,5.72
2017-11-25T10:20:52.037Z,5.63
2017-11-25T10:21:52.650Z,5.63
2017-11-25T10:22:53.248Z,5.58
2017-11-25T10:23:53.851Z,5.63
2017-11-25T10:24:54.449Z,5.65
2017-11-25T10:25:55.055Z,5.65
2017-11-25T10:26:55.666Z,5.68
2017-11-25T10:27:56.291Z,5.73
2017-11-25T10:28:56.898Z,5.73
2017-11-25T10:29:57.503Z,5.79
2017-11-25T10:30:58.112Z,5.87
2017-11-25T10:31:58.709Z,5.86
2017-11-25T10:32:59.318Z,5.90
2017-11-25T10:33:59.983Z,5.91
2017-11-25T10:35:00.604Z,5.91
2017-11-25T10:36:01.227Z,5.94
2017-11-25T10:37:01.844Z,6.01
2017-11-25T10:38:02.449Z,6.08
2017-11-25T10:39:03.064Z,6.13
2017-11-25T10:40:03.661Z,6.06
2017-11-25T10:41:04.258Z,6.01
2017-11-25T10:42:04.868Z,6.05
2017-11-25T10:43:05.488Z,6.11
2017-11-25T10:44:06.099Z,6.11
2017-11-25T10:45:06.700Z,6.12
2017-11-25T10:46:07.312Z,6.11
2017-11-25T10:47:07.936Z,6.22
2017-11-25T10:48:08.554Z,6.25
2017-11-25T10:49:09.172Z,6.24
2017-11-25T10:50:09.794Z,6.34
2017-11-25T10:51:10.413Z,6.48
2017-11-25T10:52:11.018Z,6.39
2017-11-25T10:53:11.615Z,6.43
2017-11-25T10:54:12.220Z,6.43
2017-11-25T10:55:12.837Z,6.48
2017-11-25T10:56:13.463Z,6.35
2017-11-25T10:57:14.076Z,6.39
2017-11-25T10:58:14.679Z,6.38
2017-11-25T10:59:15.275Z,6.43
2017-11-25T11:00:15.873Z,6.42
2017-11-25T11:01:16.484Z,6.43
2017-11-25T11:02:17.078Z,6.45
2017-11-25T11:03:17.681Z,6.39
2017-11-25T11:04:18.288Z,6.34
2017-11-25T11:05:18.895Z,6.39
2017-11-25T11:06:19.505Z,6.46
2017-11-25T11:07:20.124Z,6.55
2017-11-25T11:08:20.743Z,6.53
2017-11-25T11:09:21.344Z,6.60
2017-11-25T11:10:21.952Z,6.68
2017-11-25T11:11:22.548Z,6.73
2017-11-25T11:12:23.144Z,6.86
2017-11-25T11:13:23.750Z,6.89
2017-11-25T11:14:24.364Z,6.81
2017-11-25T11:15:24.994Z,6.91
2017-11-25T11:16:25.594Z,6.99
2017-11-25T11:17:26.196Z,7.06
2017-11-25T11:18:26.805Z,7.21
2017-11-25T11:19:27.420Z,7.21
2017-11-25T11:20:28.027Z,7.28
2017-11-25T11:21:28.636Z,7.33
2017-11-25T11:22:29.248Z,7.27
2017-11-25T11:23:29.854Z,7.27
2017-11-25T11:24:30.464Z,7.33
2017-11-25T11:25:31.081Z,7.24
2017-11-25T11:26:31.681Z,7.25
2017-11-25T11:27:32.291Z,7.21
2017-11-25T11:28:32.900Z,7.29
2017-11-25T11:29:33.504Z,7.12
2017-11-25T11:30:34.111Z,7.12
2017-11-25T11:31:34.726Z,7.22
2017-11-25T11:32:35.342Z,7.24
2017-11-25T11:33:35.954Z,7.28
2017-11-25T11:34:36.555Z,7.29
2017-11-25T11:35:37.154Z,7.09
2017-11-25T11:36:37.769Z,7.22
2017-11-25T11:37:38.384Z,7.27
2017-11-25T11:38:38.996Z,7.29
2017-11-25T11:39:39.605Z,7.15
2017-11-25T11:40:40.214Z,7.22
2017-11-25T11:41:40.829Z,7.22
2017-11-25T11:42:41.430Z,7.15
2017-11-25T11:43:42.045Z,7.24
2017-11-25T11:44:42.647Z,7.24
2017-11-25T11:45:43.252Z,7.24
2017-11-25T11:46:43.857Z,7.18
2017-11-25T11:47:44.469Z,7.12
2017-11-25T11:48:45.078Z,7.15
2017-11-25T11:49:45.697Z,7.19
2017-11-25T11:50:46.316Z,7.22
2017-11-25T11:51:46.939Z,7.27
2017-11-25T11:52:47.561Z,7.32
2017-11-25T11:53:48.176Z,7.39
2017-11-25T11:54:48.796Z,7.42
2017-11-25T11:55:49.413Z,7.45
2017-11-25T11:56:50.025Z,7.45
2017-11-25T11:57:50.632Z,7.37
2017-11-25T11:58:51.255Z,7.46
2017-11-25T11:59:51.869Z,7.43
2017-11-25T12:00:52.486Z,7.40
2017-11-25T12:01:53.099Z,7.50
2017-11-25T12:02:53.704Z,7.51
2017-11-25T12:03:54.323Z,7.47
2017-11-25T12:04:54.941Z,7.47
2017-11-25T12:05:55.543Z,7.42
2017-11-25T12:06:56.159Z,7.57
2017-11-25T12:07:56.772Z,7.72
2017-11-25T12:08:57.386Z,7.77
2017-11-25T12:09:57.998Z,7.69
2017-11-25T12:10:58.606Z,7.76
2017-11-25T12:11:59.230Z,7.72
2017-11-25T12:12:59.847Z,7.73
2017-11-25T12:14:00.465Z,7.60
2017-11-25T12:15:01.076Z,7.60
2017-11-25T12:16:01.689Z,7.46
2017-11-25T12:17:02.310Z,7.40
2017-11-25T12:18:02.924Z,7.43
2017-11-25T12:19:03.527Z,7.40
2017-11-25T12:20:04.147Z,7.43
2017-11-25T12:21:04.773Z,7.46
2017-11-25T12:22:05.372Z,7.45
2017-11-25T12:23:05.983Z,7.36
2017-11-25T12:24:06.586Z,7.43
2017-11-25T12:25:07.195Z,7.47
2017-11-25T12:26:07.800Z,7.42
2017-11-25T12:27:08.410Z,7.46
2017-11-25T12:28:09.031Z,7.45
2017-11-25T12:29:09.648Z,7.39
2017-11-25T12:30:10.249Z,7.33
2017-11-25T12:31:10.846Z,7.15
2017-11-25T12:32:11.458Z,7.07
2017-11-25T12:33:12.058Z,7.00
2017-11-25T12:34:12.666Z,6.99
2017-11-25T12:35:13.269Z,6.86
2017-11-25T12:36:13.875Z,6.75
2017-11-25T12:37:14.477Z,6.79
2017-11-25T12:38:16.074Z,6.64
2017-11-25T12:39:16.673Z,6.78
2017-11-25T12:40:17.286Z,6.68
2017-11-25T12:41:17.883Z,6.68
2017-11-25T12:42:18.496Z,6.64
2017-11-25T12:43:19.093Z,6.70
2017-11-25T12:44:19.690Z,6.79
2017-11-25T12:45:20.297Z,6.76
2017-11-25T12:46:20.917Z,6.81
2017-11-25T12:47:21.519Z,6.86
2017-11-25T12:48:22.140Z,6.91
2017-11-25T12:49:22.748Z,6.86
2017-11-25T12:50:23.356Z,6.89
2017-11-25T12:51:23.966Z,6.86
2017-11-25T12:52:24.572Z,6.84
2017-11-25T12:53:25.176Z,6.84
2017-11-25T12:54:25.776Z,6.85
2017-11-25T12:55:26.389Z,6.85
2017-11-25T12:56:26.997Z,7.02
2017-11-25T12:57:27.610Z,7.00
2017-11-25T12:58:28.237Z,6.97
2017-11-25T12:59:28.852Z,6.97
2017-11-25T13:00:29.457Z,7.03
2017-11-25T13:01:30.061Z,7.07
2017-11-25T13:02:30.670Z,7.07
2017-11-25T13:03:31.279Z,7.09
2017-11-25T13:04:31.892Z,7.10
2017-11-25T13:05:32.507Z,7.17
2017-11-25T13:06:33.120Z,7.10
2017-11-25T13:07:33.732Z,7.10
2017-11-25T13:08:34.353Z,6.97
2017-11-25T13:09:34.947Z,6.99
2017-11-25T13:10:35.556Z,6.99
2017-11-25T13:11:36.164Z,7.10
2017-11-25T13:12:36.777Z,7.04
2017-11-25T13:13:37.371Z,7.06
2017-11-25T13:14:38.021Z,7.09
2017-11-25T13:15:38.603Z,7.15
2017-11-25T13:16:39.231Z,7.15
2017-11-25T13:17:39.838Z,7.15
2017-11-25T13:18:40.453Z,7.19
2017-11-25T13:19:41.062Z,7.21
2017-11-25T13:20:41.671Z,7.22
2017-11-25T13:21:42.289Z,7.28
2017-11-25T13:22:42.881Z,7.24
2017-11-25T13:23:43.490Z,7.19
2017-11-25T13:24:44.096Z,7.21
2017-11-25T13:25:44.712Z,7.19
2017-11-25T13:26:45.321Z,7.22